Time;durP1;ratioP1;P1;durP2;ratioP2;P2;SDS_P1;SDS_P2;PMS_P1;PMS_P2;Temp;Humidity;BMP_temperature;BMP_pressure;BME280_temperature;BME280_humidity;BME280_pressure;Samples;Min_cycle;Max_cycle;Signal;HPM_P1;HPM_P2
2021/12/01 00:02:11;;;;;;;9.82;7.43;;;7.50;99.90;;;;;;4964705;28;20580;-72
2021/12/01 00:04:38;;;;;;;12.25;8.48;;;7.50;99.90;;;;;;4962274;28;20055;-72
2021/12/01 00:07:07;;;;;;;11.65;8.05;;;7.50;99.90;;;;;;4963067;28;20089;-73
2021/12/01 00:09:34;;;;;;;10.40;8.20;;;7.60;99.90;;;;;;4947914;28;20047;-73
2021/12/01 00:12:02;;;;;;;8.75;6.40;;;7.60;99.90;;;;;;4967228;28;20054;-75
2021/12/01 00:14:29;;;;;;;8.57;6.32;;;7.70;99.90;;;;;;4948824;28;20047;-71
2021/12/01 00:16:55;;;;;;;9.35;7.20;;;7.70;99.90;;;;;;4947791;28;20046;-70
2021/12/01 00:19:23;;;;;;;9.85;7.07;;;7.80;99.90;;;;;;4947188;28;20289;-73
2021/12/01 00:21:50;;;;;;;8.10;6.50;;;7.80;99.90;;;;;;4963746;28;20594;-72
2021/12/01 00:24:16;;;;;;;10.30;7.40;;;7.80;99.90;;;;;;4962050;28;20396;-75
2021/12/01 00:26:43;;;;;;;10.50;7.55;;;7.80;99.90;;;;;;4963482;28;20047;-72
2021/12/01 00:29:10;;;;;;;10.68;8.52;;;7.80;99.90;;;;;;4945937;28;20064;-71
2021/12/01 00:31:38;;;;;;;10.65;8.38;;;7.80;99.90;;;;;;4946395;28;20047;-70
2021/12/01 00:34:04;;;;;;;12.00;9.02;;;7.80;99.90;;;;;;4947879;28;20102;-71
2021/12/01 00:36:31;;;;;;;11.20;7.50;;;7.90;99.90;;;;;;4966611;28;20043;-72
2021/12/01 00:38:58;;;;;;;12.18;7.95;;;7.90;99.90;;;;;;4945879;28;20046;-72
2021/12/01 00:41:25;;;;;;;11.38;7.55;;;7.90;99.90;;;;;;4962928;28;20507;-73
2021/12/01 00:43:53;;;;;;;11.07;7.55;;;7.90;99.90;;;;;;4949232;28;20078;-73
2021/12/01 00:46:23;;;;;;;9.77;7.03;;;7.90;99.90;;;;;;4947297;28;20054;-74
2021/12/01 00:48:51;;;;;;;9.10;6.43;;;7.90;99.90;;;;;;4948027;28;20133;-72
2021/12/01 00:51:18;;;;;;;9.18;5.80;;;7.90;99.90;;;;;;4962623;28;20058;-71
2021/12/01 00:53:44;;;;;;;6.22;5.18;;;7.90;99.90;;;;;;4946531;28;20053;-71
2021/12/01 00:56:12;;;;;;;6.70;5.22;;;7.90;99.90;;;;;;4963209;28;20047;-71
2021/12/01 00:58:39;;;;;;;6.18;4.22;;;7.90;99.90;;;;;;4964006;28;20130;-71
2021/12/01 01:01:06;;;;;;;5.10;3.85;;;7.90;99.90;;;;;;4946620;28;20055;-73
2021/12/01 01:03:35;;;;;;;5.53;3.88;;;7.90;99.90;;;;;;4977709;28;20057;-73
2021/12/01 01:06:02;;;;;;;4.32;3.60;;;7.90;99.90;;;;;;4959981;28;20066;-71
2021/12/01 01:08:30;;;;;;;4.55;2.47;;;8.00;99.90;;;;;;4962757;28;20043;-71
2021/12/01 01:11:09;;;;;;;3.13;2.78;;;8.00;99.90;;;;;;4967091;28;20047;-71
2021/12/01 01:16:23;;;;;;;2.65;2.25;;;8.00;99.90;;;;;;4948087;28;20535;-71
2021/12/01 01:19:03;;;;;;;3.10;2.45;;;8.00;99.90;;;;;;4949227;28;20043;-72
2021/12/01 01:21:33;;;;;;;2.80;1.92;;;8.00;99.90;;;;;;4978004;28;20059;-72
2021/12/01 01:24:02;;;;;;;1.83;1.70;;;8.00;99.90;;;;;;4982470;28;20055;-71
2021/12/01 01:26:30;;;;;;;2.85;1.83;;;8.00;99.90;;;;;;4964153;28;20109;-70
2021/12/01 01:28:57;;;;;;;1.92;1.50;;;8.00;99.90;;;;;;4948952;28;20141;-71
2021/12/01 01:31:24;;;;;;;2.00;1.50;;;8.10;99.90;;;;;;4965414;28;20055;-71
2021/12/01 01:33:51;;;;;;;2.95;1.58;;;8.10;99.90;;;;;;4964833;28;20043;-71
2021/12/01 01:36:19;;;;;;;1.63;1.33;;;8.10;99.90;;;;;;4961267;28;20109;-71
2021/12/01 01:38:46;;;;;;;2.45;1.65;;;8.10;99.90;;;;;;4962028;28;20380;-71
2021/12/01 01:41:14;;;;;;;1.60;1.23;;;8.10;99.90;;;;;;4962208;28;20423;-70
2021/12/01 01:43:42;;;;;;;1.48;1.15;;;8.10;99.90;;;;;;4967942;28;20055;-73
2021/12/01 01:46:10;;;;;;;1.77;0.65;;;8.10;99.90;;;;;;4962198;28;20101;-70
2021/12/01 01:51:32;;;;;;;0.60;0.40;;;8.10;99.90;;;;;;4947527;28;20047;-71
2021/12/01 01:53:59;;;;;;;0.85;0.60;;;8.10;99.90;;;;;;4963153;28;20069;-70
2021/12/01 01:56:27;;;;;;;0.70;0.55;;;8.00;99.90;;;;;;4961129;28;20157;-71
2021/12/01 01:58:55;;;;;;;1.63;0.47;;;8.00;99.90;;;;;;4946139;28;20710;-70
2021/12/01 02:03:53;;;;;;;1.05;0.70;;;8.00;99.90;;;;;;4962851;28;20413;-73
2021/12/01 02:06:23;;;;;;;1.23;1.13;;;8.00;99.90;;;;;;4961187;28;20046;-72
2021/12/01 02:08:53;;;;;;;0.90;0.50;;;8.00;99.90;;;;;;4961587;28;20130;-71
2021/12/01 02:11:21;;;;;;;0.30;0.30;;;8.00;99.90;;;;;;4962964;28;20390;-69
2021/12/01 02:13:49;;;;;;;0.80;0.60;;;7.90;99.90;;;;;;4964906;28;20061;-74
2021/12/01 02:16:18;;;;;;;0.80;0.50;;;7.90;99.90;;;;;;4947149;28;20057;-71
2021/12/01 02:18:45;;;;;;;0.77;0.63;;;8.00;99.90;;;;;;4962141;28;20130;-70
2021/12/01 02:21:15;;;;;;;0.95;0.73;;;7.90;99.90;;;;;;4960668;28;20057;-73
2021/12/01 02:23:47;;;;;;;1.15;0.90;;;7.90;99.90;;;;;;4977508;28;20046;-71
2021/12/01 02:26:16;;;;;;;1.63;1.40;;;7.90;99.90;;;;;;4961914;28;20054;-70
2021/12/01 02:28:47;;;;;;;1.75;1.48;;;7.90;99.90;;;;;;4944015;28;20051;-73
2021/12/01 02:31:14;;;;;;;1.85;1.65;;;7.90;99.90;;;;;;4960279;28;20062;-71
2021/12/01 02:33:41;;;;;;;2.28;1.80;;;7.90;99.90;;;;;;4962111;28;20054;-72
2021/12/01 02:36:10;;;;;;;2.22;2.03;;;7.90;99.90;;;;;;4956403;28;20078;-72
2021/12/01 02:38:38;;;;;;;2.25;2.00;;;8.00;99.90;;;;;;4959334;28;20177;-72
2021/12/01 02:41:05;;;;;;;2.45;2.13;;;7.90;99.90;;;;;;4960079;28;20058;-73
2021/12/01 02:43:32;;;;;;;2.20;1.55;;;8.00;99.90;;;;;;4963135;28;20063;-73
2021/12/01 02:45:59;;;;;;;3.42;2.50;;;8.00;99.90;;;;;;4946094;28;20053;-72
2021/12/01 02:48:26;;;;;;;3.25;2.40;;;8.00;99.90;;;;;;4961447;28;20835;-70
2021/12/01 02:50:53;;;;;;;2.97;2.35;;;7.90;99.90;;;;;;4960562;28;20069;-74
2021/12/01 02:53:22;;;;;;;2.28;1.95;;;7.90;99.90;;;;;;4961695;28;20054;-73
2021/12/01 02:56:01;;;;;;;2.60;2.40;;;8.00;99.90;;;;;;4962614;28;20057;-72
2021/12/01 02:58:32;;;;;;;2.63;2.42;;;7.90;99.90;;;;;;4960811;28;20081;-70
2021/12/01 03:01:02;;;;;;;2.30;2.10;;;8.00;99.90;;;;;;4946966;28;20051;-73
2021/12/01 03:03:31;;;;;;;4.38;2.25;;;7.90;99.90;;;;;;4947609;28;20082;-73
2021/12/01 03:05:58;;;;;;;2.30;2.10;;;8.00;99.90;;;;;;4955837;28;20050;-70
2021/12/01 03:08:26;;;;;;;2.30;2.10;;;8.00;99.90;;;;;;4964181;28;20046;-72
2021/12/01 03:10:54;;;;;;;2.40;2.20;;;8.00;99.90;;;;;;4964257;28;20058;-73
2021/12/01 03:13:25;;;;;;;2.15;1.95;;;7.90;99.90;;;;;;4945002;28;20054;-73
2021/12/01 03:15:53;;;;;;;2.15;1.95;;;7.90;99.90;;;;;;4962857;28;20093;-71
2021/12/01 03:18:21;;;;;;;1.77;1.65;;;7.90;99.90;;;;;;4958614;28;20034;-70
2021/12/01 03:20:49;;;;;;;2.05;1.65;;;7.90;99.90;;;;;;4960095;28;20047;-73
2021/12/01 03:23:17;;;;;;;2.72;1.60;;;7.90;99.90;;;;;;4963322;28;20408;-72
2021/12/01 03:25:45;;;;;;;1.60;1.50;;;7.90;99.90;;;;;;4962262;28;20138;-71
2021/12/01 03:28:12;;;;;;;1.50;1.35;;;8.00;99.90;;;;;;4961311;28;20054;-71
2021/12/01 03:30:40;;;;;;;1.30;1.20;;;7.90;99.90;;;;;;4961325;28;20066;-72
2021/12/01 03:33:10;;;;;;;1.38;1.27;;;7.90;99.90;;;;;;4961706;28;20053;-70
2021/12/01 03:35:40;;;;;;;1.20;1.10;;;7.90;99.90;;;;;;4959528;28;20043;-71
2021/12/01 03:38:07;;;;;;;1.33;1.23;;;7.90;99.90;;;;;;4973176;28;20183;-73
2021/12/01 03:40:34;;;;;;;1.27;1.17;;;7.90;99.90;;;;;;4965943;28;20066;-72
2021/12/01 03:43:02;;;;;;;1.75;1.65;;;7.80;99.90;;;;;;4963704;28;20047;-72
2021/12/01 03:45:30;;;;;;;1.45;1.35;;;7.80;99.90;;;;;;4981633;28;20046;-70
2021/12/01 03:47:57;;;;;;;2.03;1.45;;;7.80;99.90;;;;;;4965753;28;20110;-72
2021/12/01 03:50:24;;;;;;;1.60;1.27;;;7.80;99.90;;;;;;4962032;28;20535;-71
2021/12/01 03:52:51;;;;;;;2.28;1.90;;;7.70;99.90;;;;;;4966246;28;20443;-71
2021/12/01 03:55:18;;;;;;;1.50;1.40;;;7.70;99.90;;;;;;4964027;28;20042;-71
2021/12/01 03:57:46;;;;;;;1.30;1.20;;;7.70;99.90;;;;;;4963035;28;20094;-71
2021/12/01 04:00:15;;;;;;;1.98;1.67;;;7.70;99.90;;;;;;4947707;28;20046;-73
2021/12/01 04:02:42;;;;;;;3.05;1.35;;;7.60;99.90;;;;;;4966516;28;20142;-69
2021/12/01 04:05:10;;;;;;;2.10;1.50;;;7.70;99.90;;;;;;4947480;28;20136;-72
2021/12/01 04:07:37;;;;;;;1.40;1.27;;;7.70;99.90;;;;;;4933183;28;20167;-71
2021/12/01 04:10:11;;;;;;;1.80;1.40;;;7.60;99.90;;;;;;4966082;28;20059;-69
2021/12/01 04:12:39;;;;;;;1.80;1.55;;;7.60;99.90;;;;;;4966043;28;20039;-74
2021/12/01 04:15:06;;;;;;;2.15;1.60;;;7.60;99.90;;;;;;4944654;28;20030;-72
2021/12/01 04:17:33;;;;;;;1.25;1.05;;;7.60;99.90;;;;;;4961366;28;20054;-75
2021/12/01 04:20:00;;;;;;;1.70;1.35;;;7.60;99.90;;;;;;4931521;28;20039;-71
2021/12/01 04:22:27;;;;;;;2.97;1.92;;;7.50;99.90;;;;;;4963909;28;20042;-72
2021/12/01 04:24:54;;;;;;;1.98;1.75;;;7.50;99.90;;;;;;4964665;28;20046;-71
2021/12/01 04:27:21;;;;;;;1.58;1.30;;;7.50;99.90;;;;;;4946218;28;20050;-69
2021/12/01 04:29:48;;;;;;;3.55;2.40;;;7.50;99.90;;;;;;4963906;28;20129;-70
2021/12/01 04:32:15;;;;;;;2.08;1.58;;;7.50;99.90;;;;;;4948229;28;20054;-70
2021/12/01 04:34:42;;;;;;;2.40;1.73;;;7.40;99.90;;;;;;4965839;28;20126;-71
2021/12/01 04:37:09;;;;;;;2.92;2.55;;;7.40;99.90;;;;;;4960678;28;20054;-71
2021/12/01 04:39:36;;;;;;;2.55;2.20;;;7.30;99.90;;;;;;4964511;28;20512;-74
2021/12/01 04:42:05;;;;;;;3.53;2.90;;;7.20;99.90;;;;;;4965870;28;20072;-73
2021/12/01 04:44:34;;;;;;;4.18;2.65;;;7.20;99.90;;;;;;4945517;28;20054;-73
2021/12/01 04:47:03;;;;;;;2.63;2.05;;;7.10;99.90;;;;;;4976746;28;20054;-71
2021/12/01 04:49:39;;;;;;;4.10;2.50;;;7.10;99.90;;;;;;4963045;28;20137;-72
2021/12/01 04:52:08;;;;;;;4.15;3.40;;;7.00;99.90;;;;;;4966112;28;20184;-72
2021/12/01 04:54:35;;;;;;;3.35;2.45;;;7.00;99.90;;;;;;4966442;28;20526;-74
2021/12/01 04:57:04;;;;;;;3.05;2.30;;;7.00;99.90;;;;;;4965172;28;20055;-72
2021/12/01 04:59:33;;;;;;;2.83;2.53;;;7.00;99.90;;;;;;4965247;28;20042;-70
2021/12/01 05:02:01;;;;;;;3.63;2.00;;;7.00;99.90;;;;;;4965562;28;20059;-71
2021/12/01 05:04:28;;;;;;;5.03;2.97;;;7.00;99.90;;;;;;4948751;28;20059;-70
2021/12/01 05:06:55;;;;;;;6.85;3.05;;;6.90;99.90;;;;;;4945358;28;20516;-71
2021/12/01 05:09:22;;;;;;;3.05;2.50;;;6.90;99.90;;;;;;4947615;28;20051;-74
2021/12/01 05:11:49;;;;;;;2.45;1.98;;;6.90;99.90;;;;;;4963960;28;20201;-73
2021/12/01 05:14:16;;;;;;;2.50;2.10;;;6.90;99.90;;;;;;4948762;28;20039;-73
2021/12/01 05:16:43;;;;;;;2.65;1.80;;;6.90;99.90;;;;;;4987579;28;20054;-73
2021/12/01 05:19:11;;;;;;;2.95;2.15;;;6.90;99.90;;;;;;4962330;28;20046;-72
2021/12/01 05:21:39;;;;;;;1.67;1.38;;;6.80;99.90;;;;;;4963686;28;20205;-70
2021/12/01 05:24:07;;;;;;;3.70;1.50;;;6.80;99.90;;;;;;4964459;28;20476;-71
2021/12/01 05:26:34;;;;;;;3.42;1.67;;;6.80;99.90;;;;;;4944906;28;20054;-73
2021/12/01 05:29:02;;;;;;;1.85;1.30;;;6.80;99.90;;;;;;4965277;28;20054;-72
2021/12/01 05:31:29;;;;;;;1.60;1.35;;;6.80;99.90;;;;;;4964259;28;20495;-73
2021/12/01 05:33:56;;;;;;;4.63;1.63;;;6.80;99.90;;;;;;4964004;28;20063;-74
2021/12/01 05:36:23;;;;;;;2.40;1.27;;;6.80;99.90;;;;;;4946921;28;20488;-74
2021/12/01 05:38:50;;;;;;;1.88;1.10;;;6.80;99.90;;;;;;4946904;28;20131;-73
2021/12/01 05:41:17;;;;;;;1.67;0.98;;;6.80;99.90;;;;;;4944915;28;20130;-71
2021/12/01 05:43:45;;;;;;;1.10;0.70;;;6.80;99.90;;;;;;4963949;28;20058;-73
2021/12/01 05:46:12;;;;;;;0.90;0.60;;;6.90;99.90;;;;;;4961082;28;20698;-72
2021/12/01 05:48:40;;;;;;;0.90;0.63;;;6.90;99.90;;;;;;4960074;28;20543;-71
2021/12/01 05:51:07;;;;;;;0.73;0.40;;;7.00;99.90;;;;;;4959181;28;20065;-75
2021/12/01 05:53:35;;;;;;;1.25;0.80;;;7.00;99.90;;;;;;4963241;28;20587;-72
2021/12/01 05:56:03;;;;;;;1.13;0.60;;;7.00;99.90;;;;;;4946136;28;20063;-74
2021/12/01 05:58:29;;;;;;;0.63;0.60;;;7.00;99.90;;;;;;4962392;28;20054;-73
2021/12/01 06:00:56;;;;;;;0.57;0.43;;;7.00;99.90;;;;;;4964946;28;20476;-74
2021/12/01 06:03:23;;;;;;;0.63;0.40;;;7.10;99.90;;;;;;4962399;28;20061;-71
2021/12/01 06:05:50;;;;;;;1.85;0.60;;;7.10;99.90;;;;;;4963010;28;20134;-71
2021/12/01 06:08:17;;;;;;;1.10;0.70;;;7.00;99.90;;;;;;4977337;28;20051;-73
2021/12/01 06:10:45;;;;;;;0.77;0.43;;;7.00;99.90;;;;;;4962741;28;20610;-71
2021/12/01 06:13:18;;;;;;;2.03;0.60;;;7.00;99.90;;;;;;4946877;28;20082;-70
2021/12/01 06:15:49;;;;;;;2.75;0.43;;;7.00;99.90;;;;;;4956653;28;20498;-71
2021/12/01 06:18:17;;;;;;;1.05;0.70;;;7.00;99.90;;;;;;4962271;28;20425;-72
2021/12/01 06:20:44;;;;;;;1.52;1.00;;;7.00;99.90;;;;;;4961143;28;20054;-72
2021/12/01 06:23:12;;;;;;;1.27;0.88;;;7.00;99.90;;;;;;4945830;28;20057;-73
2021/12/01 06:25:39;;;;;;;1.45;0.90;;;7.00;99.90;;;;;;4964538;28;20134;-73
2021/12/01 06:28:06;;;;;;;0.98;0.85;;;7.00;99.90;;;;;;4946627;28;20055;-70
2021/12/01 06:30:36;;;;;;;1.20;0.93;;;7.00;99.90;;;;;;4961663;28;20057;-72
2021/12/01 06:33:04;;;;;;;1.52;0.95;;;7.00;99.90;;;;;;4944359;28;20056;-70
2021/12/01 06:35:31;;;;;;;3.65;1.25;;;7.00;99.90;;;;;;4988618;28;20043;-73
2021/12/01 06:37:58;;;;;;;1.63;1.08;;;7.00;99.90;;;;;;4941645;28;20705;-69
2021/12/01 06:40:26;;;;;;;2.00;1.08;;;7.00;99.90;;;;;;4935635;28;20090;-71
2021/12/01 06:42:54;;;;;;;2.20;1.17;;;7.00;99.90;;;;;;4937755;29;20142;-70
2021/12/01 06:45:21;;;;;;;3.17;0.90;;;7.00;99.90;;;;;;4957589;28;20051;-72
2021/12/01 06:47:48;;;;;;;1.98;1.33;;;7.00;99.90;;;;;;4961396;28;20051;-70
2021/12/01 06:50:16;;;;;;;6.43;2.28;;;7.10;99.90;;;;;;4943199;28;20058;-70
2021/12/01 06:52:43;;;;;;;1.33;0.95;;;7.00;99.90;;;;;;4962326;28;20047;-70
2021/12/01 06:55:10;;;;;;;5.68;3.15;;;7.00;99.90;;;;;;4939857;28;20191;-71
2021/12/01 06:57:37;;;;;;;10.80;4.57;;;7.00;99.90;;;;;;4952386;28;20045;-72
2021/12/01 07:00:08;;;;;;;10.07;4.97;;;7.00;99.90;;;;;;4963204;28;20070;-72
2021/12/01 07:02:35;;;;;;;2.15;1.50;;;7.00;99.90;;;;;;4969174;28;20088;-73
2021/12/01 07:05:02;;;;;;;5.60;3.70;;;7.00;99.90;;;;;;4964336;28;20918;-73
2021/12/01 07:07:29;;;;;;;13.02;6.68;;;7.00;99.90;;;;;;4962231;28;20054;-74
2021/12/01 07:09:56;;;;;;;8.68;4.72;;;7.00;99.90;;;;;;4945678;28;20522;-72
2021/12/01 07:12:23;;;;;;;6.70;2.67;;;7.10;99.90;;;;;;4977023;28;21042;-71
2021/12/01 07:14:51;;;;;;;14.48;5.35;;;7.00;99.90;;;;;;4960734;28;20055;-74
2021/12/01 07:17:19;;;;;;;7.55;3.50;;;7.10;99.90;;;;;;4976157;28;20365;-73
2021/12/01 07:19:48;;;;;;;11.57;5.65;;;7.10;99.90;;;;;;4963847;28;20737;-72
2021/12/01 07:22:15;;;;;;;10.02;4.97;;;7.00;99.90;;;;;;4963423;28;20125;-72
2021/12/01 07:24:43;;;;;;;10.45;5.28;;;7.10;99.90;;;;;;4965481;28;20046;-72
2021/12/01 07:27:13;;;;;;;2.55;1.95;;;7.10;99.90;;;;;;4964729;28;20051;-74
2021/12/01 07:29:42;;;;;;;9.65;4.28;;;7.20;99.90;;;;;;4965266;28;20058;-74
2021/12/01 07:32:10;;;;;;;9.82;5.15;;;7.10;99.90;;;;;;4948685;28;20090;-72
2021/12/01 07:34:43;;;;;;;7.00;3.53;;;7.10;99.90;;;;;;4965385;28;20043;-71
2021/12/01 07:37:12;;;;;;;4.40;3.50;;;7.20;99.90;;;;;;4948590;28;20053;-70
2021/12/01 07:39:39;;;;;;;3.15;2.20;;;7.10;99.90;;;;;;4950067;28;20035;-73
2021/12/01 07:42:07;;;;;;;3.92;2.50;;;7.20;99.90;;;;;;4964439;28;20051;-72
2021/12/01 07:44:34;;;;;;;2.95;2.40;;;7.20;99.90;;;;;;4963523;28;20050;-72
2021/12/01 07:47:01;;;;;;;2.97;2.30;;;7.20;99.90;;;;;;4961766;28;20692;-72
2021/12/01 07:49:28;;;;;;;3.47;2.50;;;7.20;99.90;;;;;;4933051;28;20046;-73
2021/12/01 07:52:00;;;;;;;4.18;2.25;;;7.30;99.90;;;;;;4948372;28;20070;-72
2021/12/01 07:54:26;;;;;;;3.78;1.83;;;7.30;99.90;;;;;;4965843;28;20055;-71
2021/12/01 07:56:53;;;;;;;2.58;2.22;;;7.30;99.90;;;;;;4964955;28;20520;-72
2021/12/01 07:59:20;;;;;;;2.15;1.95;;;7.40;99.90;;;;;;4964938;28;20632;-73
2021/12/01 08:01:48;;;;;;;2.50;1.77;;;7.40;99.90;;;;;;4965318;28;20239;-73
2021/12/01 08:04:15;;;;;;;2.13;1.92;;;7.40;99.90;;;;;;4948282;28;20042;-73
2021/12/01 08:06:45;;;;;;;2.45;2.25;;;7.40;99.90;;;;;;4947928;28;20039;-71
2021/12/01 08:09:12;;;;;;;2.20;1.60;;;7.40;99.90;;;;;;4978416;28;20774;-71
2021/12/01 08:11:39;;;;;;;3.15;2.35;;;7.50;99.90;;;;;;4992300;28;20055;-72
2021/12/01 08:14:07;;;;;;;2.22;2.00;;;7.50;99.90;;;;;;4947339;28;20457;-69
2021/12/01 08:16:35;;;;;;;2.80;1.80;;;7.50;99.90;;;;;;4959254;28;20043;-74
2021/12/01 08:19:03;;;;;;;2.53;2.22;;;7.60;99.90;;;;;;4965245;28;20139;-73
2021/12/01 08:21:30;;;;;;;1.65;1.55;;;7.60;99.90;;;;;;4966634;28;20456;-71
2021/12/01 08:24:08;;;;;;;2.65;1.70;;;7.60;99.90;;;;;;4966860;28;20058;-70
2021/12/01 08:26:37;;;;;;;2.22;1.83;;;7.60;99.90;;;;;;4946311;28;20093;-70
2021/12/01 08:29:04;;;;;;;3.05;1.60;;;7.60;99.90;;;;;;4964492;28;20047;-72
2021/12/01 08:31:31;;;;;;;1.38;1.27;;;7.70;99.90;;;;;;4965175;28;20057;-73
2021/12/01 08:33:58;;;;;;;1.30;1.20;;;7.60;99.90;;;;;;4965650;28;20491;-71
2021/12/01 08:36:25;;;;;;;2.97;1.33;;;7.70;99.90;;;;;;4959787;28;20048;-74
2021/12/01 08:38:52;;;;;;;1.40;1.30;;;7.70;99.90;;;;;;4962573;28;20046;-73
2021/12/01 08:41:19;;;;;;;1.33;1.23;;;7.70;99.90;;;;;;4961901;28;20570;-73
2021/12/01 08:43:46;;;;;;;1.17;1.10;;;7.70;99.90;;;;;;4966428;28;20147;-76
2021/12/01 08:46:13;;;;;;;1.50;1.20;;;7.70;99.90;;;;;;4943149;28;20281;-71
2021/12/01 08:48:41;;;;;;;1.13;1.02;;;7.70;99.90;;;;;;4990165;28;20051;-72
2021/12/01 08:51:08;;;;;;;1.20;1.10;;;7.80;99.90;;;;;;4963353;28;20070;-73
2021/12/01 08:53:39;;;;;;;0.90;0.90;;;7.80;99.90;;;;;;4964514;28;20511;-70
2021/12/01 08:56:06;;;;;;;1.85;1.20;;;7.80;99.90;;;;;;4963446;28;20050;-72
2021/12/01 08:58:34;;;;;;;0.93;0.93;;;7.70;99.90;;;;;;4963428;28;20063;-71
2021/12/01 09:01:01;;;;;;;0.70;0.70;;;7.70;99.90;;;;;;4963577;28;20047;-72
2021/12/01 09:03:29;;;;;;;1.30;1.20;;;7.70;99.90;;;;;;4947780;28;20141;-73
2021/12/01 09:05:56;;;;;;;0.80;0.80;;;7.70;99.90;;;;;;4948782;28;20578;-72
2021/12/01 09:08:25;;;;;;;0.70;0.70;;;7.70;99.90;;;;;;4962508;28;20051;-73
2021/12/01 09:10:55;;;;;;;0.80;0.80;;;7.70;99.90;;;;;;4944043;28;20109;-72
2021/12/01 09:13:24;;;;;;;0.77;0.77;;;7.80;99.90;;;;;;4961823;28;20134;-71
2021/12/01 09:15:53;;;;;;;0.90;0.90;;;7.70;99.90;;;;;;4960688;28;20061;-72
2021/12/01 09:18:21;;;;;;;1.10;1.00;;;7.80;99.90;;;;;;4944433;28;20520;-71
2021/12/01 09:20:49;;;;;;;1.20;0.93;;;7.80;99.90;;;;;;4959747;28;20042;-74
2021/12/01 09:23:16;;;;;;;3.92;1.15;;;7.80;99.90;;;;;;4964889;28;20058;-73
2021/12/01 09:25:45;;;;;;;0.85;0.85;;;7.80;99.90;;;;;;4962859;28;20057;-73
2021/12/01 09:28:18;;;;;;;1.13;1.02;;;7.80;99.90;;;;;;4949349;28;20495;-72
2021/12/01 09:30:45;;;;;;;0.90;0.90;;;7.80;99.90;;;;;;4964314;28;20078;-73
2021/12/01 09:33:13;;;;;;;1.13;1.10;;;7.90;99.90;;;;;;4965770;28;20067;-73
2021/12/01 09:35:43;;;;;;;1.10;1.00;;;7.80;99.90;;;;;;4946625;28;20038;-72
2021/12/01 09:38:13;;;;;;;0.95;0.80;;;7.80;99.90;;;;;;4947866;28;20492;-73
2021/12/01 09:40:45;;;;;;;0.60;0.60;;;7.90;99.90;;;;;;4964292;28;20053;-73
2021/12/01 09:43:13;;;;;;;0.80;0.60;;;7.80;99.90;;;;;;4964415;28;20065;-70
2021/12/01 09:45:41;;;;;;;7.00;1.23;;;7.80;99.90;;;;;;4945920;28;20043;-75
2021/12/01 09:48:09;;;;;;;0.70;0.70;;;7.90;99.90;;;;;;4960440;28;20050;-72
2021/12/01 09:50:36;;;;;;;1.00;0.80;;;7.90;99.90;;;;;;4961812;28;20065;-74
2021/12/01 09:53:03;;;;;;;1.80;0.60;;;7.90;99.90;;;;;;4963506;28;20080;-74
2021/12/01 09:55:30;;;;;;;0.60;0.60;;;7.90;99.90;;;;;;4964279;28;20042;-72
2021/12/01 09:58:04;;;;;;;0.57;0.57;;;7.90;99.90;;;;;;4961696;28;20045;-73
2021/12/01 10:00:34;;;;;;;0.55;0.55;;;7.90;99.90;;;;;;4964277;28;20069;-71
2021/12/01 10:03:03;;;;;;;0.93;0.70;;;7.90;99.90;;;;;;4996342;28;20043;-71
2021/12/01 10:05:49;;;;;;;0.50;0.50;;;7.90;99.90;;;;;;4978872;28;20053;-74
2021/12/01 10:08:28;;;;;;;0.68;0.60;;;7.90;99.90;;;;;;4960942;28;20085;-72
2021/12/01 10:10:57;;;;;;;0.93;0.85;;;7.90;99.90;;;;;;4977453;28;20049;-73
2021/12/01 10:13:30;;;;;;;1.35;1.10;;;7.90;99.90;;;;;;4962628;28;20051;-74
2021/12/01 10:16:01;;;;;;;0.80;0.80;;;7.90;99.90;;;;;;4959428;28;20042;-72
2021/12/01 10:18:35;;;;;;;0.80;0.80;;;7.90;99.90;;;;;;4957843;28;20057;-74
2021/12/01 10:21:07;;;;;;;1.90;1.35;;;7.90;99.90;;;;;;4962475;28;20086;-75
2021/12/01 10:23:36;;;;;;;0.90;0.90;;;7.90;99.90;;;;;;4962582;28;20446;-72
2021/12/01 10:26:09;;;;;;;1.05;0.80;;;7.90;99.90;;;;;;4963117;28;20401;-73
2021/12/01 10:28:43;;;;;;;1.20;0.68;;;7.90;99.90;;;;;;4962396;28;20050;-71
2021/12/01 10:31:13;;;;;;;0.60;0.60;;;7.90;99.90;;;;;;4963413;28;20058;-70
2021/12/01 10:33:40;;;;;;;0.70;0.70;;;8.00;99.90;;;;;;4964814;28;20051;-73
2021/12/01 10:36:09;;;;;;;0.63;0.57;;;8.00;99.90;;;;;;4945486;28;20086;-71
2021/12/01 10:38:39;;;;;;;0.60;0.60;;;8.00;99.90;;;;;;4963978;28;20061;-72
2021/12/01 10:41:15;;;;;;;0.60;0.60;;;8.00;99.90;;;;;;4931626;28;20043;-71
2021/12/01 10:43:49;;;;;;;2.47;1.77;;;7.90;99.90;;;;;;4965771;28;20077;-75
2021/12/01 10:46:18;;;;;;;1.02;0.88;;;8.00;99.90;;;;;;4956452;28;20053;-71
2021/12/01 10:49:00;;;;;;;0.60;0.60;;;8.00;99.90;;;;;;4952370;28;20046;-69
2021/12/01 10:51:37;;;;;;;0.88;0.80;;;8.00;99.90;;;;;;4938160;29;20055;-70
2021/12/01 10:54:05;;;;;;;1.23;0.68;;;8.00;99.90;;;;;;4970518;28;20059;-73
2021/12/01 10:56:34;;;;;;;0.60;0.60;;;8.00;99.90;;;;;;4967042;28;20145;-74
2021/12/01 10:59:16;;;;;;;1.15;0.90;;;8.00;99.90;;;;;;4955227;28;20050;-71
2021/12/01 11:01:44;;;;;;;0.57;0.50;;;8.00;99.90;;;;;;4971731;28;20051;-70
2021/12/01 11:04:12;;;;;;;1.95;0.50;;;8.00;99.90;;;;;;4969789;28;20061;-70
2021/12/01 11:06:42;;;;;;;1.83;0.90;;;8.10;99.90;;;;;;4952228;28;20559;-72
2021/12/01 11:09:09;;;;;;;0.55;0.55;;;8.10;99.90;;;;;;4969243;28;20149;-72
2021/12/01 11:11:44;;;;;;;6.40;4.13;;;8.10;99.90;;;;;;4952610;28;20053;-71
2021/12/01 11:14:40;;;;;;;0.70;0.70;;;8.10;99.90;;;;;;4956377;28;20106;-73
2021/12/01 11:17:08;;;;;;;0.63;0.63;;;8.10;99.90;;;;;;4967566;28;20047;-70
2021/12/01 11:19:35;;;;;;;0.60;0.60;;;8.10;99.90;;;;;;4952649;28;20042;-72
2021/12/01 11:22:28;;;;;;;2.05;0.70;;;8.10;99.90;;;;;;4984716;28;20077;-71
2021/12/01 11:25:21;;;;;;;1.50;0.70;;;8.10;99.90;;;;;;4969586;28;20118;-73
2021/12/01 11:27:48;;;;;;;0.68;0.68;;;8.10;99.90;;;;;;4933864;28;20504;-71
2021/12/01 11:30:16;;;;;;;0.50;0.50;;;8.10;99.90;;;;;;4970752;28;20743;-72
2021/12/01 11:32:54;;;;;;;0.70;0.70;;;8.20;99.90;;;;;;4967382;28;20195;-72
2021/12/01 11:35:22;;;;;;;0.98;0.68;;;8.20;99.90;;;;;;4969967;28;20067;-72
2021/12/01 11:37:55;;;;;;;0.60;0.60;;;8.20;99.90;;;;;;4967750;28;20038;-70
2021/12/01 11:40:30;;;;;;;0.60;0.60;;;8.30;99.90;;;;;;4967760;28;20051;-73
2021/12/01 11:42:58;;;;;;;0.60;0.60;;;8.30;99.90;;;;;;4967567;28;20065;-73
2021/12/01 11:45:25;;;;;;;2.05;0.95;;;8.30;99.90;;;;;;4968614;28;20055;-72
2021/12/01 11:47:54;;;;;;;2.38;1.05;;;8.40;99.90;;;;;;4967773;28;20058;-74
2021/12/01 11:50:31;;;;;;;0.75;0.75;;;8.40;99.90;;;;;;4968286;28;20050;-71
2021/12/01 11:53:23;;;;;;;2.05;0.70;;;8.40;99.90;;;;;;4953658;28;20459;-74
2021/12/01 11:55:57;;;;;;;0.60;0.60;;;8.30;99.90;;;;;;4968777;28;20309;-70
2021/12/01 11:58:45;;;;;;;0.50;0.50;;;8.40;99.90;;;;;;4981326;28;20054;-71
2021/12/01 12:01:21;;;;;;;0.45;0.45;;;8.40;99.90;;;;;;4951358;28;20046;-75
2021/12/01 12:03:54;;;;;;;0.50;0.50;;;8.40;99.90;;;;;;4950558;28;20065;-72
2021/12/01 12:06:22;;;;;;;0.65;0.65;;;8.50;99.90;;;;;;4964831;28;20632;-70
2021/12/01 12:09:06;;;;;;;0.73;0.70;;;8.50;99.90;;;;;;4981190;28;20622;-73
2021/12/01 12:11:49;;;;;;;1.25;0.70;;;8.50;99.90;;;;;;4948994;28;20113;-71
2021/12/01 12:14:26;;;;;;;2.25;1.48;;;8.50;99.90;;;;;;4966022;28;20053;-71
2021/12/01 12:17:13;;;;;;;1.42;0.95;;;8.50;99.90;;;;;;4947031;28;20039;-71
2021/12/01 12:19:46;;;;;;;0.60;0.60;;;8.50;99.90;;;;;;4965420;28;20051;-74
2021/12/01 12:22:36;;;;;;;1.95;0.60;;;8.60;99.90;;;;;;4965564;28;20051;-71
2021/12/01 12:25:27;;;;;;;0.50;0.50;;;8.60;99.90;;;;;;4941249;28;20418;-73
2021/12/01 12:27:54;;;;;;;0.55;0.55;;;8.60;99.90;;;;;;4945831;28;20054;-75
2021/12/01 12:30:30;;;;;;;0.82;0.82;;;8.60;99.90;;;;;;4967741;28;20055;-71
2021/12/01 12:33:18;;;;;;;0.50;0.50;;;8.60;99.90;;;;;;4968234;28;20078;-73
2021/12/01 12:35:52;;;;;;;0.77;0.77;;;8.60;99.90;;;;;;4949331;28;20795;-73
2021/12/01 12:38:19;;;;;;;1.15;0.60;;;8.50;99.90;;;;;;4964540;28;20054;-72
2021/12/01 12:40:47;;;;;;;0.52;0.52;;;8.50;99.90;;;;;;4962717;28;20055;-74
2021/12/01 12:43:24;;;;;;;1.90;0.60;;;8.50;99.90;;;;;;4968330;28;20054;-71
2021/12/01 12:46:17;;;;;;;1.00;0.60;;;8.40;99.90;;;;;;4948155;28;20077;-71
2021/12/01 12:48:48;;;;;;;1.40;1.30;;;8.30;99.90;;;;;;4963151;28;20082;-70
2021/12/01 12:51:31;;;;;;;0.73;0.52;;;8.20;99.90;;;;;;4964948;28;20051;-71
2021/12/01 12:54:02;;;;;;;0.47;0.47;;;8.10;99.90;;;;;;4969107;28;20065;-69
2021/12/01 12:56:33;;;;;;;1.70;0.77;;;8.00;99.90;;;;;;4949862;28;20396;-71
2021/12/01 12:59:19;;;;;;;0.95;0.57;;;7.90;99.90;;;;;;4976655;28;20042;-68
2021/12/01 13:02:14;;;;;;;1.00;0.60;;;7.80;99.90;;;;;;4982636;28;20066;-71
2021/12/01 13:05:05;;;;;;;0.82;0.52;;;7.70;99.90;;;;;;4969932;28;20122;-73
2021/12/01 13:07:42;;;;;;;1.23;0.47;;;7.60;99.90;;;;;;4961887;28;20046;-74
2021/12/01 13:10:18;;;;;;;1.52;0.73;;;7.60;99.90;;;;;;4965776;28;20051;-75
2021/12/01 13:12:58;;;;;;;1.38;1.00;;;7.50;99.90;;;;;;4949156;28;20515;-72
2021/12/01 13:15:28;;;;;;;1.13;0.70;;;7.60;99.90;;;;;;4981442;28;20054;-74
2021/12/01 13:18:00;;;;;;;0.65;0.63;;;7.60;99.90;;;;;;4946782;28;20055;-74